Time;durP1;ratioP1;P1;durP2;ratioP2;P2;SDS_P1;SDS_P2;PMS_P1;PMS_P2;Temp;Humidity;BMP_temperature;BMP_pressure;BME280_temperature;BME280_humidity;BME280_pressure;Samples;Min_cycle;Max_cycle;Signal;HPM_P1;HPM_P2
2024/02/21 00:00:33;;;;;;;20.60;3.15;;;9.90;99.90;;;;;;5101354;28;20542;-69
2024/02/21 00:03:02;;;;;;;16.17;2.42;;;9.90;99.90;;;;;;5085024;28;20063;-68
2024/02/21 00:05:29;;;;;;;16.88;2.70;;;9.90;99.90;;;;;;5095158;28;20058;-69
2024/02/21 00:07:57;;;;;;;32.72;6.38;;;9.90;99.90;;;;;;5102918;28;20047;-69
2024/02/21 00:10:25;;;;;;;16.75;2.65;;;9.90;99.90;;;;;;5091628;28;20070;-67
2024/02/21 00:12:52;;;;;;;23.88;3.47;;;10.00;99.90;;;;;;5095198;28;20067;-68
2024/02/21 00:15:19;;;;;;;18.17;3.45;;;10.00;99.90;;;;;;5092712;28;20522;-69
2024/02/21 00:17:46;;;;;;;15.68;2.38;;;10.00;99.90;;;;;;5098591;28;20527;-70
2024/02/21 00:20:12;;;;;;;23.40;3.13;;;10.00;99.90;;;;;;5095521;28;20056;-69
2024/02/21 00:22:40;;;;;;;25.15;4.13;;;10.00;99.90;;;;;;5079168;28;20415;-70
2024/02/21 00:25:08;;;;;;;12.85;2.40;;;10.00;99.90;;;;;;5093809;28;20056;-69
2024/02/21 00:27:35;;;;;;;13.82;2.80;;;10.00;99.90;;;;;;5096571;28;20055;-69
2024/02/21 00:30:02;;;;;;;14.88;3.30;;;10.00;99.90;;;;;;5097321;28;20089;-71
2024/02/21 00:32:29;;;;;;;13.52;2.30;;;10.00;99.90;;;;;;5099875;28;20053;-70
2024/02/21 00:34:56;;;;;;;16.33;2.92;;;10.00;99.90;;;;;;5096740;28;20111;-69
2024/02/21 00:37:23;;;;;;;11.52;2.40;;;10.10;99.90;;;;;;5090125;28;20051;-69
2024/02/21 00:39:50;;;;;;;15.02;3.70;;;10.10;99.90;;;;;;5099045;28;20180;-70
2024/02/21 00:42:18;;;;;;;15.35;4.03;;;10.10;99.90;;;;;;5098033;28;20059;-71
2024/02/21 00:44:44;;;;;;;18.77;2.75;;;10.10;99.90;;;;;;5094449;28;20104;-70
2024/02/21 00:47:11;;;;;;;12.88;2.50;;;10.00;99.90;;;;;;5092419;28;20105;-69
2024/02/21 00:49:38;;;;;;;14.85;2.42;;;10.00;99.90;;;;;;5091630;28;20056;-70
2024/02/21 00:52:05;;;;;;;13.93;2.28;;;10.10;99.90;;;;;;5100249;28;20051;-70
2024/02/21 00:54:32;;;;;;;14.52;3.03;;;10.10;99.90;;;;;;5100138;28;20051;-70
2024/02/21 00:57:13;;;;;;;15.07;2.70;;;10.10;99.90;;;;;;5098319;28;20196;-70
2024/02/21 00:59:41;;;;;;;11.43;3.13;;;10.00;99.90;;;;;;5082057;28;20457;-70
2024/02/21 01:02:08;;;;;;;17.95;3.70;;;10.00;99.90;;;;;;5098925;28;20413;-70
2024/02/21 01:04:36;;;;;;;14.63;2.63;;;10.00;99.90;;;;;;5097272;28;20470;-69
2024/02/21 01:07:03;;;;;;;14.23;2.55;;;10.00;99.90;;;;;;5062896;28;20056;-70
2024/02/21 01:09:30;;;;;;;15.45;2.58;;;10.00;99.90;;;;;;5097440;28;20056;-69
2024/02/21 01:11:57;;;;;;;12.88;2.13;;;10.00;99.90;;;;;;5099306;28;20062;-70
2024/02/21 01:14:24;;;;;;;14.70;2.67;;;10.00;99.90;;;;;;5096262;28;20044;-72
2024/02/21 01:16:50;;;;;;;17.92;2.78;;;10.00;99.90;;;;;;5099097;28;20051;-70
2024/02/21 01:19:17;;;;;;;16.33;2.53;;;10.00;99.90;;;;;;5095882;28;20109;-70
2024/02/21 01:21:44;;;;;;;13.35;2.55;;;10.00;99.90;;;;;;5089489;28;20051;-70
2024/02/21 01:24:11;;;;;;;28.00;3.03;;;10.00;99.90;;;;;;5102591;28;20097;-68
2024/02/21 01:26:38;;;;;;;20.15;2.88;;;9.90;99.90;;;;;;5102908;28;20048;-70
2024/02/21 01:29:05;;;;;;;11.10;2.35;;;9.90;99.90;;;;;;5100815;28;20089;-69
2024/02/21 01:31:31;;;;;;;16.98;3.20;;;10.00;99.90;;;;;;5104032;28;20047;-69
2024/02/21 01:33:58;;;;;;;22.40;3.45;;;9.90;99.90;;;;;;5104454;28;20071;-70
2024/02/21 01:36:25;;;;;;;15.02;2.83;;;9.90;99.90;;;;;;5099474;28;20483;-70
2024/02/21 01:38:52;;;;;;;17.40;3.80;;;9.90;99.90;;;;;;5106879;28;20087;-69
2024/02/21 01:41:19;;;;;;;21.75;2.55;;;10.00;99.90;;;;;;5092661;28;20048;-68
2024/02/21 01:43:45;;;;;;;23.70;4.03;;;10.00;99.90;;;;;;5106612;28;20048;-70
2024/02/21 01:46:12;;;;;;;17.88;2.95;;;9.90;99.90;;;;;;5103190;28;20082;-69
2024/02/21 01:48:39;;;;;;;12.38;2.28;;;9.90;99.90;;;;;;5089244;28;20753;-69
2024/02/21 01:51:06;;;;;;;16.58;2.38;;;9.90;99.90;;;;;;5087418;28;20056;-69
2024/02/21 01:53:38;;;;;;;14.35;3.22;;;9.90;99.90;;;;;;5107772;28;20044;-69
2024/02/21 01:56:06;;;;;;;19.30;2.50;;;9.90;99.90;;;;;;5073275;28;20071;-69
2024/02/21 01:58:33;;;;;;;11.20;2.83;;;9.90;99.90;;;;;;5087505;28;20055;-69
2024/02/21 02:01:00;;;;;;;18.20;2.47;;;9.90;99.90;;;;;;5089021;28;20043;-69
2024/02/21 02:03:28;;;;;;;17.00;2.63;;;9.90;99.90;;;;;;5085657;28;20051;-69
2024/02/21 02:05:55;;;;;;;19.15;4.40;;;9.90;99.90;;;;;;5107081;28;20047;-69
2024/02/21 02:08:22;;;;;;;18.55;3.00;;;9.90;99.90;;;;;;5101160;28;20066;-69
2024/02/21 02:10:49;;;;;;;19.23;4.90;;;9.90;99.90;;;;;;5085342;28;20044;-69
2024/02/21 02:13:16;;;;;;;21.40;2.63;;;10.00;99.90;;;;;;5089297;28;20055;-70
2024/02/21 02:15:43;;;;;;;17.27;2.45;;;10.00;99.90;;;;;;5101891;28;20052;-68
2024/02/21 02:18:11;;;;;;;13.60;2.92;;;10.00;99.90;;;;;;5107660;28;20531;-68
2024/02/21 02:20:38;;;;;;;11.60;2.17;;;10.00;99.90;;;;;;5097018;28;20146;-69
2024/02/21 02:23:10;;;;;;;19.23;4.20;;;10.00;99.90;;;;;;5099775;28;20058;-70
2024/02/21 02:25:37;;;;;;;18.95;3.17;;;9.90;99.90;;;;;;5105777;28;20055;-70
2024/02/21 02:28:05;;;;;;;20.08;2.80;;;10.00;99.90;;;;;;5088547;28;20044;-70
2024/02/21 02:30:34;;;;;;;18.27;3.60;;;10.00;99.90;;;;;;5103097;28;20048;-69
2024/02/21 02:33:01;;;;;;;13.18;3.75;;;9.90;99.90;;;;;;5105766;28;20039;-69
2024/02/21 02:35:28;;;;;;;14.20;2.58;;;9.90;99.90;;;;;;5097282;28;20048;-69
2024/02/21 02:37:54;;;;;;;16.25;3.40;;;10.00;99.90;;;;;;5085070;28;20040;-69
2024/02/21 02:40:21;;;;;;;16.67;3.63;;;10.00;99.90;;;;;;5104556;28;20448;-68
2024/02/21 02:42:49;;;;;;;27.85;3.47;;;10.00;99.90;;;;;;5092757;28;20059;-70
2024/02/21 02:45:16;;;;;;;20.67;4.00;;;10.00;99.90;;;;;;5099080;28;20047;-69
2024/02/21 02:47:46;;;;;;;13.75;2.70;;;10.00;99.90;;;;;;5106975;28;20099;-68
2024/02/21 02:50:13;;;;;;;18.30;2.90;;;10.00;99.90;;;;;;5104182;28;20050;-69
2024/02/21 02:52:40;;;;;;;20.17;3.00;;;10.00;99.90;;;;;;5095588;28;20432;-70
2024/02/21 02:55:07;;;;;;;24.73;4.13;;;10.00;99.90;;;;;;5086571;28;20047;-69
2024/02/21 02:57:34;;;;;;;18.45;3.20;;;10.00;99.90;;;;;;5103087;28;20083;-69
2024/02/21 03:00:01;;;;;;;20.73;3.75;;;10.00;99.90;;;;;;5106403;28;20054;-69
2024/02/21 03:02:28;;;;;;;19.83;2.70;;;10.00;99.90;;;;;;5101072;28;20044;-70
2024/02/21 03:04:54;;;;;;;26.75;3.83;;;10.00;99.90;;;;;;5103522;28;20055;-70
2024/02/21 03:07:21;;;;;;;21.05;3.70;;;10.00;99.90;;;;;;5103050;28;20134;-69
2024/02/21 03:09:49;;;;;;;21.73;3.70;;;10.00;99.90;;;;;;5107095;28;20071;-69
2024/02/21 03:12:24;;;;;;;14.45;2.75;;;10.00;99.90;;;;;;5104628;28;20040;-70
2024/02/21 03:14:51;;;;;;;16.00;3.08;;;10.00;99.90;;;;;;5103153;28;20109;-69
2024/02/21 03:17:17;;;;;;;15.43;3.20;;;10.00;99.90;;;;;;5103369;28;20044;-69
2024/02/21 03:19:44;;;;;;;18.42;3.35;;;10.00;99.90;;;;;;5107076;28;20051;-69
2024/02/21 03:22:11;;;;;;;14.45;3.08;;;10.00;99.90;;;;;;5102676;28;20047;-69
2024/02/21 03:24:38;;;;;;;17.02;2.45;;;10.00;99.90;;;;;;5105929;28;20050;-69
2024/02/21 03:27:04;;;;;;;15.15;2.60;;;10.00;99.90;;;;;;5106324;28;20071;-70
2024/02/21 03:29:31;;;;;;;15.85;4.28;;;9.90;99.90;;;;;;5106611;28;20173;-69
2024/02/21 03:31:58;;;;;;;9.05;2.60;;;9.90;99.90;;;;;;5104881;28;20043;-70
2024/02/21 03:34:25;;;;;;;15.68;2.22;;;9.90;99.90;;;;;;5084606;28;20051;-68
2024/02/21 03:36:53;;;;;;;15.60;2.30;;;9.90;99.90;;;;;;5096874;28;20039;-70
2024/02/21 03:39:21;;;;;;;16.55;4.32;;;9.90;99.90;;;;;;5104443;28;20086;-69
2024/02/21 03:41:47;;;;;;;23.90;2.72;;;9.90;99.90;;;;;;5105856;28;20047;-69
2024/02/21 03:44:14;;;;;;;11.35;2.63;;;9.90;99.90;;;;;;5091679;28;20048;-68
2024/02/21 03:46:41;;;;;;;14.30;2.67;;;9.80;99.90;;;;;;5104766;28;20542;-70
2024/02/21 03:49:08;;;;;;;14.82;2.47;;;9.80;99.90;;;;;;5103897;28;20042;-70
2024/02/21 03:51:35;;;;;;;14.15;2.42;;;9.90;99.90;;;;;;5097968;28;20690;-70
2024/02/21 03:54:02;;;;;;;13.23;3.00;;;9.80;99.90;;;;;;5101763;28;20104;-70
2024/02/21 03:56:29;;;;;;;14.70;2.42;;;9.80;99.90;;;;;;5103402;28;20047;-69
2024/02/21 03:58:55;;;;;;;10.82;2.13;;;9.80;99.90;;;;;;5086172;28;20104;-70
2024/02/21 04:01:22;;;;;;;13.48;2.13;;;9.90;99.90;;;;;;5100075;28;20487;-70
2024/02/21 04:03:49;;;;;;;17.92;2.10;;;9.80;99.90;;;;;;5105457;28;20071;-70
2024/02/21 04:06:16;;;;;;;17.85;2.45;;;9.80;99.90;;;;;;5104177;28;20043;-70
2024/02/21 04:08:43;;;;;;;19.65;2.33;;;9.80;99.90;;;;;;5105677;28;20449;-70
2024/02/21 04:11:10;;;;;;;10.05;2.78;;;9.90;99.90;;;;;;5076120;28;20170;-69
2024/02/21 04:13:37;;;;;;;11.05;2.45;;;9.80;99.90;;;;;;5097710;28;20043;-69
2024/02/21 04:16:05;;;;;;;7.75;1.92;;;9.80;99.90;;;;;;5106970;28;20100;-70
2024/02/21 04:18:32;;;;;;;22.60;3.42;;;9.90;99.90;;;;;;5106760;28;20046;-69
2024/02/21 04:20:59;;;;;;;12.00;2.20;;;9.80;99.90;;;;;;5102870;28;20050;-69
2024/02/21 04:23:26;;;;;;;8.65;2.80;;;9.80;99.90;;;;;;5096558;28;20054;-70
2024/02/21 04:25:53;;;;;;;12.60;1.77;;;9.80;99.90;;;;;;5086424;28;20054;-71
2024/02/21 04:28:19;;;;;;;17.77;2.42;;;9.80;99.90;;;;;;5105336;28;20077;-68
2024/02/21 04:30:46;;;;;;;10.48;2.17;;;9.70;99.90;;;;;;5089870;28;20054;-69
2024/02/21 04:33:13;;;;;;;13.15;2.13;;;9.80;99.90;;;;;;5101649;28;20046;-69
2024/02/21 04:35:40;;;;;;;16.35;4.30;;;9.70;99.90;;;;;;5104508;28;20073;-70
2024/02/21 04:38:07;;;;;;;11.30;1.85;;;9.70;99.90;;;;;;5106040;28;20652;-69
2024/02/21 04:40:34;;;;;;;10.95;2.22;;;9.70;99.90;;;;;;5103324;28;20444;-72
2024/02/21 04:43:00;;;;;;;14.25;4.35;;;9.70;99.90;;;;;;5104690;28;20047;-69
2024/02/21 04:45:27;;;;;;;6.28;1.85;;;9.70;99.90;;;;;;5100284;28;20097;-69
2024/02/21 04:47:54;;;;;;;17.80;3.33;;;9.70;99.90;;;;;;5105447;28;20043;-70
2024/02/21 04:50:21;;;;;;;12.25;2.70;;;9.70;99.90;;;;;;5104532;28;20110;-69
2024/02/21 04:52:48;;;;;;;11.38;2.33;;;9.60;99.90;;;;;;5106049;28;20052;-69
2024/02/21 04:55:15;;;;;;;10.63;2.15;;;9.70;99.90;;;;;;5100393;28;20039;-69
2024/02/21 04:57:42;;;;;;;10.35;1.95;;;9.60;99.90;;;;;;5094130;28;20075;-69
2024/02/21 05:00:09;;;;;;;9.88;1.90;;;9.60;99.90;;;;;;5103643;28;20044;-70
2024/02/21 05:02:36;;;;;;;9.35;1.83;;;9.60;99.90;;;;;;5098062;28;20044;-70
2024/02/21 05:05:03;;;;;;;8.85;1.65;;;9.70;99.90;;;;;;5082007;28;20130;-70
2024/02/21 05:07:30;;;;;;;11.77;2.20;;;9.60;99.90;;;;;;5097875;28;20051;-70
2024/02/21 05:09:57;;;;;;;9.93;1.90;;;9.60;99.90;;;;;;5098610;28;20042;-70
2024/02/21 05:12:24;;;;;;;11.68;3.03;;;9.60;99.90;;;;;;5107420;28;20462;-70
2024/02/21 05:14:51;;;;;;;8.95;1.98;;;9.60;99.90;;;;;;5106641;28;20126;-70
2024/02/21 05:17:17;;;;;;;6.82;2.08;;;9.70;99.90;;;;;;5099720;28;20040;-69
2024/02/21 05:19:44;;;;;;;12.27;2.10;;;9.60;99.90;;;;;;5095203;28;20052;-68
2024/02/21 05:22:11;;;;;;;11.52;1.83;;;9.60;99.90;;;;;;5109216;28;20096;-68
2024/02/21 05:24:40;;;;;;;13.88;1.80;;;9.60;99.90;;;;;;5096036;28;20040;-69
2024/02/21 05:27:06;;;;;;;7.40;1.85;;;9.60;99.90;;;;;;5105720;28;20055;-68
2024/02/21 05:29:33;;;;;;;13.65;2.33;;;9.60;99.90;;;;;;5101972;28;20101;-69
2024/02/21 05:32:00;;;;;;;7.30;2.30;;;9.60;99.90;;;;;;5103569;28;20389;-68
2024/02/21 05:34:27;;;;;;;17.00;2.47;;;9.60;99.90;;;;;;5105648;28;20282;-69
2024/02/21 05:36:55;;;;;;;4.47;1.77;;;9.60;99.90;;;;;;5107416;28;20051;-70
2024/02/21 05:39:22;;;;;;;10.00;1.77;;;9.70;99.90;;;;;;5088826;28;20036;-69
2024/02/21 05:41:50;;;;;;;7.93;1.50;;;9.70;99.90;;;;;;5105369;28;20043;-69
2024/02/21 05:44:18;;;;;;;9.73;2.03;;;9.70;99.90;;;;;;5089655;28;20044;-71
2024/02/21 05:46:45;;;;;;;7.07;2.47;;;9.70;99.90;;;;;;5102518;28;20124;-71
2024/02/21 05:49:12;;;;;;;14.57;2.92;;;9.60;99.90;;;;;;5103438;28;20068;-70
2024/02/21 05:51:38;;;;;;;11.88;2.00;;;9.50;99.90;;;;;;5100259;28;20519;-70
2024/02/21 05:54:07;;;;;;;8.80;2.40;;;9.40;99.90;;;;;;5108131;28;20416;-69
2024/02/21 05:56:34;;;;;;;9.65;1.88;;;9.40;99.90;;;;;;5101737;28;20532;-69
2024/02/21 05:59:01;;;;;;;18.92;3.47;;;9.30;99.90;;;;;;5107457;28;20067;-69
2024/02/21 06:01:27;;;;;;;13.30;2.33;;;9.20;99.90;;;;;;5103834;28;20051;-69
2024/02/21 06:03:54;;;;;;;12.00;2.63;;;9.20;99.90;;;;;;5106313;28;20065;-71
2024/02/21 06:06:21;;;;;;;25.38;3.05;;;9.10;99.90;;;;;;5102955;28;20072;-72
2024/02/21 06:08:49;;;;;;;11.82;2.85;;;9.10;99.90;;;;;;5105850;28;20044;-71
2024/02/21 06:11:16;;;;;;;10.48;1.50;;;9.00;99.90;;;;;;5104369;28;20047;-70
2024/02/21 06:13:43;;;;;;;11.23;1.77;;;8.90;99.90;;;;;;5107732;28;20071;-70
2024/02/21 06:16:10;;;;;;;10.05;3.05;;;8.90;99.90;;;;;;5088922;28;20488;-70
2024/02/21 06:18:37;;;;;;;10.57;1.73;;;8.90;99.90;;;;;;5104244;28;20520;-70
2024/02/21 06:21:05;;;;;;;14.98;2.38;;;8.90;99.90;;;;;;5106711;28;20047;-70
2024/02/21 06:23:31;;;;;;;8.07;1.90;;;8.90;99.90;;;;;;5107820;28;20051;-71
2024/02/21 06:25:58;;;;;;;8.70;2.28;;;8.90;99.90;;;;;;5102948;28;20044;-70
2024/02/21 06:28:25;;;;;;;6.97;1.67;;;9.00;99.90;;;;;;5106275;28;20404;-70
2024/02/21 06:30:52;;;;;;;9.70;1.42;;;8.80;99.90;;;;;;5104069;28;20063;-70
2024/02/21 06:33:22;;;;;;;9.75;1.90;;;8.90;99.90;;;;;;5101937;28;20048;-72
2024/02/21 06:35:52;;;;;;;2.38;1.10;;;8.90;99.90;;;;;;5087830;28;20039;-71
2024/02/21 06:38:19;;;;;;;7.13;1.40;;;8.80;99.90;;;;;;5103490;28;20052;-71
2024/02/21 06:40:49;;;;;;;7.32;1.27;;;8.80;99.90;;;;;;5102171;28;20059;-71
2024/02/21 06:43:18;;;;;;;7.75;1.20;;;8.80;99.90;;;;;;5100774;28;20042;-70
2024/02/21 06:45:50;;;;;;;5.75;1.30;;;8.80;99.90;;;;;;5105216;28;20130;-71
2024/02/21 06:48:18;;;;;;;3.42;1.00;;;8.80;99.90;;;;;;5086620;28;20652;-70
2024/02/21 06:50:45;;;;;;;6.55;1.70;;;8.80;99.90;;;;;;5102636;28;20369;-71
2024/02/21 06:53:12;;;;;;;6.90;1.27;;;8.80;99.90;;;;;;5106832;28;20092;-70
2024/02/21 06:55:39;;;;;;;5.53;1.08;;;8.80;99.90;;;;;;5105334;28;20039;-71
2024/02/21 06:58:08;;;;;;;6.30;1.25;;;8.80;99.90;;;;;;5106562;28;20086;-70
2024/02/21 07:00:35;;;;;;;7.20;1.30;;;8.90;99.90;;;;;;5103710;28;20105;-72
2024/02/21 07:03:02;;;;;;;2.90;1.45;;;8.80;99.90;;;;;;5101984;28;20040;-72
2024/02/21 07:05:29;;;;;;;6.80;1.30;;;8.80;99.90;;;;;;5101627;28;20066;-72
2024/02/21 07:07:56;;;;;;;3.85;1.17;;;8.80;99.90;;;;;;5104539;28;20473;-72
2024/02/21 07:10:23;;;;;;;3.40;1.23;;;8.80;99.90;;;;;;5104442;28;20511;-72
2024/02/21 07:12:51;;;;;;;4.50;1.23;;;8.80;99.90;;;;;;5098744;28;20532;-71
2024/02/21 07:15:18;;;;;;;4.32;1.23;;;8.80;99.90;;;;;;5103916;28;20036;-71
2024/02/21 07:17:45;;;;;;;2.75;1.13;;;8.80;99.90;;;;;;5102602;28;20093;-71
2024/02/21 07:20:12;;;;;;;4.93;1.45;;;8.80;99.90;;;;;;5085506;28;20051;-73
2024/02/21 07:22:39;;;;;;;6.85;1.13;;;8.80;99.90;;;;;;5103579;28;20514;-71
2024/02/21 07:25:06;;;;;;;5.30;0.85;;;8.80;99.90;;;;;;5103147;28;20058;-69
2024/02/21 07:27:33;;;;;;;2.95;0.93;;;8.80;99.90;;;;;;5101620;28;20140;-71
2024/02/21 07:30:00;;;;;;;7.50;1.08;;;8.80;99.90;;;;;;5095976;28;20048;-71
2024/02/21 07:32:27;;;;;;;3.53;0.82;;;8.80;99.90;;;;;;5104104;28;20077;-73
2024/02/21 07:34:54;;;;;;;4.65;1.60;;;8.80;99.90;;;;;;5105035;28;20442;-71
2024/02/21 07:37:21;;;;;;;3.70;1.00;;;8.80;99.90;;;;;;5104106;28;20543;-71
2024/02/21 07:39:48;;;;;;;6.30;1.15;;;8.80;99.90;;;;;;5105348;28;20127;-72
2024/02/21 07:42:15;;;;;;;3.05;1.02;;;8.80;99.90;;;;;;5097219;28;20105;-71
2024/02/21 07:44:42;;;;;;;6.15;1.25;;;8.80;99.90;;;;;;5102128;28;20119;-70
2024/02/21 07:47:09;;;;;;;6.68;1.70;;;8.80;99.90;;;;;;5096557;28;20204;-72
2024/02/21 07:49:45;;;;;;;5.65;2.20;;;8.80;99.90;;;;;;5101971;28;20036;-71
2024/02/21 07:52:13;;;;;;;9.85;2.60;;;8.80;99.90;;;;;;5100607;28;20051;-68
2024/02/21 07:54:40;;;;;;;8.02;1.60;;;8.80;99.90;;;;;;5103155;28;20051;-71
2024/02/21 07:57:10;;;;;;;7.65;1.48;;;8.80;99.90;;;;;;5105409;28;20088;-71
2024/02/21 07:59:37;;;;;;;7.47;1.73;;;8.90;99.90;;;;;;5089646;28;20514;-71
2024/02/21 08:02:06;;;;;;;9.13;1.50;;;8.90;99.90;;;;;;5105605;28;20047;-72
2024/02/21 08:04:33;;;;;;;6.00;1.70;;;8.90;99.90;;;;;;5104423;28;20044;-71
2024/02/21 08:07:04;;;;;;;11.95;1.58;;;8.90;99.90;;;;;;5103488;28;20047;-72
2024/02/21 08:09:31;;;;;;;6.97;1.90;;;8.90;99.90;;;;;;5104096;28;20533;-71
2024/02/21 08:11:58;;;;;;;7.53;1.40;;;8.90;99.90;;;;;;5102534;28;20496;-71
2024/02/21 08:14:24;;;;;;;6.03;1.42;;;9.00;99.90;;;;;;5082495;28;20082;-71
2024/02/21 08:16:53;;;;;;;6.82;1.63;;;9.00;99.90;;;;;;5098646;28;20044;-70
2024/02/21 08:19:20;;;;;;;7.43;1.60;;;8.90;99.90;;;;;;5101327;28;20118;-70
2024/02/21 08:21:47;;;;;;;6.28;1.52;;;9.00;99.90;;;;;;5084187;28;20135;-70
2024/02/21 08:24:17;;;;;;;4.25;1.42;;;9.00;99.90;;;;;;5093434;28;20039;-70
2024/02/21 08:26:47;;;;;;;13.50;1.80;;;9.00;99.90;;;;;;5105340;28;20055;-71
2024/02/21 08:29:13;;;;;;;10.68;2.33;;;9.00;99.90;;;;;;5100019;28;20040;-70
2024/02/21 08:31:40;;;;;;;7.28;1.63;;;9.00;99.90;;;;;;5077533;28;20039;-71
2024/02/21 08:34:07;;;;;;;11.32;1.70;;;9.10;99.90;;;;;;5101297;28;20054;-68
2024/02/21 08:36:35;;;;;;;8.95;2.08;;;9.10;99.90;;;;;;5096505;28;20128;-71
2024/02/21 08:39:03;;;;;;;7.28;1.73;;;9.10;99.90;;;;;;5086481;28;20083;-71
2024/02/21 08:41:32;;;;;;;5.93;1.88;;;9.10;99.90;;;;;;5099520;28;20047;-71
2024/02/21 08:44:19;;;;;;;8.60;1.85;;;9.10;99.90;;;;;;5097929;28;20051;-70
2024/02/21 08:46:47;;;;;;;11.60;1.67;;;9.10;99.90;;;;;;5106028;28;20071;-72
2024/02/21 08:49:14;;;;;;;10.95;1.70;;;9.10;99.90;;;;;;5100727;28;20142;-72
2024/02/21 08:51:42;;;;;;;11.88;1.95;;;9.10;99.90;;;;;;5102571;28;20052;-71
2024/02/21 08:54:09;;;;;;;10.25;1.63;;;9.10;99.90;;;;;;5106427;28;20046;-71
2024/02/21 08:56:36;;;;;;;9.63;1.95;;;9.20;99.90;;;;;;5107629;28;20044;-72
2024/02/21 08:59:03;;;;;;;5.88;1.33;;;9.20;99.90;;;;;;5105807;28;20400;-72
2024/02/21 09:01:30;;;;;;;6.20;1.38;;;9.20;99.90;;;;;;5102117;28;20055;-71
2024/02/21 09:03:58;;;;;;;7.40;2.67;;;9.20;99.90;;;;;;5106905;28;20070;-71
2024/02/21 09:06:25;;;;;;;10.02;1.75;;;9.20;99.90;;;;;;5108868;28;20093;-71
2024/02/21 09:08:51;;;;;;;9.75;1.60;;;9.30;99.90;;;;;;5106803;28;20043;-71
2024/02/21 09:11:18;;;;;;;6.68;1.35;;;9.30;99.90;;;;;;5103224;28;20051;-72
2024/02/21 09:13:45;;;;;;;10.57;1.67;;;9.30;99.90;;;;;;5108183;28;20043;-73
2024/02/21 09:16:12;;;;;;;9.68;1.20;;;9.30;99.90;;;;;;5109322;28;20065;-72
2024/02/21 09:18:39;;;;;;;4.63;1.60;;;9.30;99.90;;;;;;5108644;28;20059;-72
2024/02/21 09:21:06;;;;;;;9.35;1.30;;;9.30;99.90;;;;;;5108172;28;20051;-72
2024/02/21 09:23:33;;;;;;;4.63;0.80;;;9.40;99.90;;;;;;5108430;28;20055;-74
2024/02/21 09:26:03;;;;;;;5.63;1.38;;;9.40;99.90;;;;;;5085487;28;20039;-71
2024/02/21 09:28:30;;;;;;;11.52;1.42;;;9.30;99.90;;;;;;5084910;28;20523;-72
2024/02/21 09:30:57;;;;;;;7.20;1.17;;;9.40;99.90;;;;;;5106513;28;20039;-72
2024/02/21 09:33:24;;;;;;;4.88;1.20;;;9.40;99.90;;;;;;5102977;28;20408;-72
2024/02/21 09:35:58;;;;;;;6.43;1.75;;;9.40;99.90;;;;;;5108477;28;20048;-72
2024/02/21 09:38:25;;;;;;;9.27;1.65;;;9.40;99.90;;;;;;5107345;28;20085;-65
2024/02/21 09:41:10;;;;;;;7.53;1.33;;;9.40;99.90;;;;;;5105488;28;20048;-72
2024/02/21 09:43:38;;;;;;;3.55;1.13;;;9.40;99.90;;;;;;5101823;28;20090;-73
2024/02/21 09:46:05;;;;;;;9.18;1.45;;;9.50;99.90;;;;;;5108111;28;20062;-72
2024/02/21 09:48:56;;;;;;;6.80;1.17;;;9.40;99.90;;;;;;5080670;28;20039;-74
2024/02/21 09:51:23;;;;;;;6.78;1.33;;;9.50;99.90;;;;;;5104312;28;20130;-73
2024/02/21 09:53:49;;;;;;;4.65;0.98;;;9.50;99.90;;;;;;5089547;28;20040;-73
2024/02/21 09:56:28;;;;;;;8.30;1.30;;;9.50;99.90;;;;;;5098297;28;20050;-74
2024/02/21 09:58:55;;;;;;;7.45;0.98;;;9.40;99.90;;;;;;5105553;28;20059;-74
2024/02/21 10:01:22;;;;;;;5.15;0.90;;;9.50;99.90;;;;;;5090228;28;20127;-73
2024/02/21 10:04:02;;;;;;;4.82;1.10;;;9.50;99.90;;;;;;5108139;28;20060;-74
2024/02/21 10:06:30;;;;;;;4.30;1.05;;;9.50;99.90;;;;;;5105282;28;20480;-75
2024/02/21 10:08:57;;;;;;;4.03;1.08;;;9.50;99.90;;;;;;5102275;28;20044;-74
2024/02/21 10:11:24;;;;;;;10.48;1.40;;;9.50;99.90;;;;;;5106557;28;20047;-74
2024/02/21 10:13:51;;;;;;;6.78;1.00;;;9.50;99.90;;;;;;5088789;28;20044;-73
2024/02/21 10:16:19;;;;;;;6.38;1.45;;;9.50;99.90;;;;;;5085120;28;20052;-74
2024/02/21 10:18:45;;;;;;;8.57;0.95;;;9.50;99.90;;;;;;5108664;28;20040;-74
2024/02/21 10:21:12;;;;;;;3.75;1.42;;;9.50;99.90;;;;;;5106279;28;20051;-73
2024/02/21 10:23:42;;;;;;;5.13;1.40;;;9.50;99.90;;;;;;5107841;28;20044;-73
2024/02/21 10:26:09;;;;;;;2.50;0.90;;;9.50;99.90;;;;;;5106008;28;20051;-72
2024/02/21 10:28:41;;;;;;;2.28;0.90;;;9.50;99.90;;;;;;5107436;28;20537;-72
2024/02/21 10:31:10;;;;;;;5.25;0.93;;;9.50;99.90;;;;;;5107351;28;20496;-73
2024/02/21 10:33:37;;;;;;;3.67;2.45;;;9.50;99.90;;;;;;5078062;28;20484;-73
2024/02/21 10:36:09;;;;;;;10.68;1.33;;;9.50;99.90;;;;;;5105698;28;20108;-74
2024/02/21 10:38:37;;;;;;;9.38;1.20;;;9.50;99.90;;;;;;5107987;28;20047;-75
2024/02/21 10:41:07;;;;;;;6.10;0.85;;;9.50;99.90;;;;;;5088975;28;20039;-73
2024/02/21 10:43:41;;;;;;;2.92;1.38;;;9.50;99.90;;;;;;5104293;28;20104;-74
2024/02/21 10:46:09;;;;;;;1.75;0.80;;;9.60;99.90;;;;;;5077038;28;20054;-74
2024/02/21 10:48:43;;;;;;;2.28;0.70;;;9.50;99.90;;;;;;5106851;28;20047;-73
2024/02/21 10:51:19;;;;;;;1.85;0.68;;;9.50;99.90;;;;;;5100065;28;20510;-74
2024/02/21 10:54:04;;;;;;;5.80;0.60;;;9.50;99.90;;;;;;5097223;28;20444;-73
2024/02/21 10:56:35;;;;;;;3.38;0.63;;;9.50;99.90;;;;;;5106023;28;20051;-72
2024/02/21 10:59:03;;;;;;;2.10;0.57;;;9.70;99.90;;;;;;5107171;28;20060;-73
2024/02/21 11:01:35;;;;;;;1.00;0.60;;;9.50;99.90;;;;;;5105876;28;20040;-72
2024/02/21 11:04:04;;;;;;;1.25;0.50;;;9.50;99.90;;;;;;5107355;28;20094;-72
2024/02/21 11:06:31;;;;;;;6.03;0.70;;;9.60;99.90;;;;;;5070650;28;20050;-72
2024/02/21 11:09:01;;;;;;;2.55;0.80;;;9.50;99.90;;;;;;5107740;28;20035;-72
2024/02/21 11:11:27;;;;;;;4.80;0.80;;;9.60;99.90;;;;;;5106896;28;20039;-72
2024/02/21 11:14:09;;;;;;;3.03;0.80;;;9.60;99.90;;;;;;5103351;28;20093;-72
2024/02/21 11:16:40;;;;;;;2.30;0.77;;;9.60;99.90;;;;;;5106313;28;20040;-72
2024/02/21 11:19:28;;;;;;;1.00;0.57;;;9.60;99.90;;;;;;5088788;28;20046;-72
2024/02/21 11:21:56;;;;;;;4.35;0.70;;;9.70;99.90;;;;;;5107104;28;20043;-72
2024/02/21 11:24:31;;;;;;;3.47;0.73;;;9.70;99.90;;;;;;5108614;28;20218;-72
2024/02/21 11:27:12;;;;;;;2.40;0.70;;;9.80;99.90;;;;;;5107136;28;20047;-73
2024/02/21 11:29:50;;;;;;;3.05;1.15;;;9.80;99.90;;;;;;5104887;28;20066;-73
2024/02/21 11:32:19;;;;;;;2.25;0.60;;;9.80;99.90;;;;;;5101038;28;20039;-73
2024/02/21 11:35:03;;;;;;;1.55;0.70;;;9.80;99.90;;;;;;5073005;28;20184;-73
2024/02/21 11:37:36;;;;;;;2.60;0.45;;;9.80;99.90;;;;;;5078843;28;20120;-73
2024/02/21 11:40:06;;;;;;;3.28;0.60;;;9.80;99.90;;;;;;5105493;28;20039;-73
2024/02/21 11:42:33;;;;;;;2.80;0.50;;;9.80;99.90;;;;;;5085859;28;20436;-72
2024/02/21 11:45:00;;;;;;;3.92;0.60;;;9.80;99.90;;;;;;5104577;28;20070;-72
2024/02/21 11:47:28;;;;;;;1.88;0.68;;;9.90;99.90;;;;;;5106556;28;20130;-73
2024/02/21 11:49:55;;;;;;;1.30;0.40;;;9.90;99.90;;;;;;5085185;28;20050;-72
2024/02/21 11:52:24;;;;;;;4.43;0.57;;;9.90;99.90;;;;;;5087688;28;20047;-72
2024/02/21 11:54:54;;;;;;;2.95;0.55;;;9.90;99.90;;;;;;5106572;28;20047;-72
2024/02/21 11:57:21;;;;;;;0.47;0.30;;;9.90;99.90;;;;;;5105948;28;20476;-71
2024/02/21 11:59:49;;;;;;;2.88;0.70;;;9.90;99.90;;;;;;5105938;28;20086;-73
2024/02/21 12:02:17;;;;;;;3.55;0.50;;;9.90;99.90;;;;;;5087587;28;20100;-72
2024/02/21 12:04:44;;;;;;;2.00;0.63;;;9.90;99.90;;;;;;5105222;28;20043;-74
2024/02/21 12:07:11;;;;;;;2.38;0.75;;;9.90;99.90;;;;;;5106580;28;20043;-73
2024/02/21 12:09:38;;;;;;;2.13;0.60;;;9.90;99.90;;;;;;5104535;28;20048;-74
2024/02/21 12:12:06;;;;;;;2.20;0.60;;;10.00;99.90;;;;;;5088390;28;20104;-73
2024/02/21 12:14:33;;;;;;;5.47;0.75;;;10.00;99.90;;;;;;5102700;28;20074;-73
2024/02/21 12:17:01;;;;;;;2.17;0.60;;;10.00;99.90;;;;;;5087169;28;20039;-72
2024/02/21 12:19:31;;;;;;;0.40;0.30;;;10.00;99.90;;;;;;5104064;28;20047;-72
2024/02/21 12:21:59;;;;;;;1.27;0.50;;;10.00;99.90;;;;;;5086514;28;20564;-74
2024/02/21 12:24:27;;;;;;;0.98;0.40;;;10.00;99.90;;;;;;5100157;28;20043;-73
2024/02/21 12:26:54;;;;;;;4.32;0.60;;;10.00;99.90;;;;;;5084357;28;20088;-71
2024/02/21 12:29:21;;;;;;;3.58;0.68;;;10.00;99.90;;;;;;5105410;28;20134;-71
2024/02/21 12:31:48;;;;;;;2.20;1.10;;;10.00;99.90;;;;;;5105565;28;20533;-73
2024/02/21 12:34:15;;;;;;;3.10;0.68;;;10.10;99.90;;;;;;5084874;28;20091;-73
2024/02/21 12:36:51;;;;;;;1.90;0.70;;;10.10;99.90;;;;;;5080571;28;20035;-72
2024/02/21 12:39:19;;;;;;;3.53;0.55;;;10.20;99.90;;;;;;5103264;28;20472;-72
2024/02/21 12:41:45;;;;;;;1.90;0.70;;;10.20;99.90;;;;;;5101890;28;20217;-72
2024/02/21 12:44:12;;;;;;;1.73;0.50;;;10.20;99.90;;;;;;5102391;28;20051;-72
2024/02/21 12:46:39;;;;;;;1.58;0.73;;;10.30;99.90;;;;;;5100582;28;20036;-72
2024/02/21 12:49:09;;;;;;;2.20;0.80;;;10.30;99.90;;;;;;5097835;28;20131;-73
2024/02/21 12:51:36;;;;;;;4.68;1.45;;;10.30;99.90;;;;;;5104318;28;20347;-73
2024/02/21 12:54:03;;;;;;;5.97;1.13;;;10.30;99.90;;;;;;5090714;28;20055;-72